createdAt,value
2019-04-14T00:00:42.543Z,72.60
2019-04-14T00:03:17.283Z,72.62
2019-04-14T00:05:49.629Z,72.98
2019-04-14T00:08:19.784Z,73.53
2019-04-14T00:10:49.224Z,74.30
2019-04-14T00:13:19.578Z,74.76
2019-04-14T00:15:51.731Z,74.68
2019-04-14T00:18:20.832Z,74.50
2019-04-14T00:20:51.218Z,74.26
2019-04-14T00:23:21.554Z,73.91
2019-04-14T00:25:52.208Z,73.93
2019-04-14T00:28:22.674Z,74.05
2019-04-14T00:30:53.327Z,74.13
2019-04-14T00:33:28.081Z,74.29
2019-04-14T00:36:11.151Z,74.42
2019-04-14T00:38:43.134Z,74.53
2019-04-14T00:41:17.978Z,74.55
2019-04-14T00:43:52.811Z,74.73
2019-04-14T00:46:27.601Z,74.97
2019-04-14T00:48:58.133Z,74.82
2019-04-14T00:51:28.732Z,74.84
2019-04-14T00:53:58.157Z,75.07
2019-04-14T00:56:27.940Z,75.10
2019-04-14T00:58:58.244Z,75.10
2019-04-14T01:01:28.606Z,75.15
2019-04-14T01:03:59.075Z,75.33
2019-04-14T01:06:29.410Z,75.34
2019-04-14T01:08:59.909Z,75.62
2019-04-14T01:11:29.412Z,75.71
2019-04-14T01:13:59.400Z,75.89
2019-04-14T01:16:29.785Z,75.90
2019-04-14T01:19:00.368Z,75.84
2019-04-14T01:21:30.724Z,75.71
2019-04-14T01:24:01.041Z,75.55
2019-04-14T01:26:31.070Z,75.81
2019-04-14T01:29:01.463Z,75.84
2019-04-14T01:31:31.674Z,75.75
2019-04-14T01:34:01.978Z,75.75
2019-04-14T01:36:32.037Z,75.98
2019-04-14T01:39:02.538Z,76.02
2019-04-14T01:41:32.514Z,75.96
2019-04-14T01:44:02.719Z,75.90
2019-04-14T01:46:33.925Z,75.91
2019-04-14T01:49:03.365Z,75.66
2019-04-14T01:51:35.249Z,75.46
2019-04-14T01:54:23.499Z,75.08
2019-04-14T01:57:13.216Z,75.14
2019-04-14T01:59:43.811Z,75.10
2019-04-14T02:02:16.205Z,74.90
2019-04-14T02:04:46.399Z,74.81
2019-04-14T02:07:16.637Z,74.76
2019-04-14T02:09:46.840Z,74.48
2019-04-14T02:12:17.017Z,73.86
2019-04-14T02:14:47.385Z,73.79
2019-04-14T02:17:17.781Z,73.53
2019-04-14T02:19:48.116Z,73.49
2019-04-14T02:22:18.136Z,73.06
2019-04-14T02:24:48.167Z,72.78
2019-04-14T02:27:18.776Z,72.75
2019-04-14T02:29:49.409Z,73.11
2019-04-14T02:32:49.505Z,73.28
2019-04-14T02:40:34.777Z,72.98
2019-04-14T02:42:46.830Z,72.58
2019-04-14T02:45:29.557Z,72.97
2019-04-14T02:48:05.713Z,73.05
2019-04-14T02:50:22.959Z,73.20
2019-04-14T02:52:53.407Z,73.48
2019-04-14T02:55:21.265Z,73.64
2019-04-14T02:57:52.702Z,73.82
2019-04-14T03:00:39.109Z,74.04
2019-04-14T03:02:56.794Z,74.13
2019-04-14T03:05:37.576Z,73.94
2019-04-14T03:08:06.628Z,73.90
2019-04-14T03:10:31.936Z,73.48
2019-04-14T03:13:09.253Z,73.49
2019-04-14T03:15:39.788Z,73.49
2019-04-14T03:21:03.594Z,74.20
2019-04-14T03:23:56.423Z,74.20
2019-04-14T03:26:29.027Z,74.18
2019-04-14T03:28:51.099Z,74.58
2019-04-14T03:31:56.053Z,75.37
2019-04-14T03:39:05.793Z,75.69
2019-04-14T03:41:29.141Z,75.75
2019-04-14T03:44:03.342Z,75.68
2019-04-14T03:49:06.950Z,75.93
2019-04-14T03:51:48.555Z,76.37
2019-04-14T03:54:06.234Z,76.41
2019-04-14T03:56:35.337Z,76.29
2019-04-14T03:59:06.282Z,76.17
2019-04-14T04:01:36.749Z,75.84
2019-04-14T04:04:07.416Z,75.84
2019-04-14T04:06:37.833Z,75.79
2019-04-14T04:09:08.375Z,75.65
2019-04-14T04:11:39.028Z,75.35
2019-04-14T04:14:09.528Z,74.97
2019-04-14T04:16:53.095Z,74.52
2019-04-14T04:19:30.131Z,74.52
2019-04-14T04:22:10.633Z,73.64
2019-04-14T04:24:41.665Z,73.64
2019-04-14T04:27:15.794Z,72.74
2019-04-14T04:29:50.563Z,72.01
2019-04-14T04:32:25.402Z,71.75
2019-04-14T04:34:57.649Z,71.67
2019-04-14T04:37:30.020Z,71.80
2019-04-14T04:40:01.195Z,71.97
2019-04-14T04:42:30.877Z,72.19
2019-04-14T04:45:00.207Z,72.19
2019-04-14T04:47:29.623Z,72.58
2019-04-14T04:50:00.020Z,72.62
2019-04-14T04:52:30.089Z,72.42
2019-04-14T04:55:02.495Z,72.17
2019-04-14T04:57:35.150Z,71.97
2019-04-14T05:00:07.079Z,71.79
2019-04-14T05:02:37.463Z,71.74
2019-04-14T05:05:44.667Z,71.95
2019-04-14T05:08:15.158Z,71.41
2019-04-14T05:10:46.241Z,70.91
2019-04-14T05:13:16.230Z,71.08
2019-04-14T05:15:47.285Z,70.88
2019-04-14T05:18:17.832Z,71.01
2019-04-14T05:20:47.352Z,70.97
2019-04-14T05:23:17.039Z,70.53
2019-04-14T05:25:47.410Z,70.64
2019-04-14T05:28:17.837Z,70.73
2019-04-14T05:30:48.267Z,70.94
2019-04-14T05:33:18.544Z,71.24
2019-04-14T05:35:48.869Z,71.30
2019-04-14T05:38:19.049Z,70.92
2019-04-14T05:40:49.646Z,70.89
2019-04-14T05:43:30.472Z,69.97
2019-04-14T05:45:50.296Z,69.91
2019-04-14T05:48:20.407Z,70.08
2019-04-14T05:50:51.142Z,70.02
2019-04-14T05:53:21.751Z,70.09
2019-04-14T05:55:52.803Z,69.67
2019-04-14T05:58:23.220Z,69.20
2019-04-14T06:00:53.366Z,69.04
2019-04-14T06:03:23.484Z,68.49
2019-04-14T06:05:52.889Z,68.44
2019-04-14T06:08:22.311Z,68.42
2019-04-14T06:10:51.718Z,68.18
2019-04-14T06:13:21.137Z,68.06
2019-04-14T06:15:50.539Z,68.11
2019-04-14T06:18:19.961Z,67.47
2019-04-14T06:20:49.365Z,67.71
2019-04-14T06:23:18.794Z,67.56
2019-04-14T06:25:48.323Z,67.50
2019-04-14T06:28:17.774Z,67.48
2019-04-14T06:30:54.777Z,67.23
2019-04-14T06:33:25.893Z,66.58
2019-04-14T06:35:56.929Z,67.07
2019-04-14T06:38:27.986Z,66.27
2019-04-14T06:40:59.058Z,66.07
2019-04-14T06:43:28.483Z,66.21
2019-04-14T06:45:57.900Z,66.08
2019-04-14T06:48:27.435Z,65.86
2019-04-14T06:50:56.856Z,65.60
2019-04-14T06:53:26.290Z,65.15
2019-04-14T06:55:56.733Z,64.75
2019-04-14T06:58:27.724Z,63.98
2019-04-14T07:00:57.138Z,61.33
2019-04-14T07:03:26.572Z,55.50
2019-04-14T07:05:55.992Z,51.03
2019-04-14T07:08:25.449Z,49.50
2019-04-14T07:10:54.847Z,49.71
2019-04-14T07:13:24.279Z,50.97
2019-04-14T07:15:53.755Z,52.13
2019-04-14T07:18:23.167Z,52.84
2019-04-14T07:20:52.582Z,54.95
2019-04-14T07:23:22.166Z,56.79
2019-04-14T07:25:51.599Z,56.08
2019-04-14T07:28:21.006Z,56.59
2019-04-14T07:30:52.107Z,57.90
2019-04-14T07:33:25.873Z,59.02
2019-04-14T07:35:59.907Z,59.21
2019-04-14T07:38:30.949Z,57.65
2019-04-14T07:41:04.698Z,57.51
2019-04-14T07:43:47.830Z,58.99
2019-04-14T07:46:22.791Z,58.16
2019-04-14T07:48:53.826Z,57.31
2019-04-14T07:51:27.595Z,57.91
2019-04-14T07:54:01.364Z,58.02
2019-04-14T07:56:35.408Z,57.48
2019-04-14T07:59:06.751Z,57.54
2019-04-14T08:01:53.714Z,57.22
2019-04-14T08:04:30.542Z,56.73
2019-04-14T08:06:59.950Z,56.64
2019-04-14T08:09:29.456Z,57.46
2019-04-14T08:11:58.879Z,58.20
2019-04-14T08:14:28.287Z,58.86
2019-04-14T08:16:57.723Z,59.36
2019-04-14T08:19:27.158Z,59.67
2019-04-14T08:21:56.670Z,59.90
2019-04-14T08:24:26.080Z,60.23
2019-04-14T08:26:55.501Z,60.18
2019-04-14T08:29:24.923Z,59.61
2019-04-14T08:31:54.346Z,59.86
2019-04-14T08:34:23.771Z,61.22
2019-04-14T08:36:53.193Z,60.06
2019-04-14T08:39:22.605Z,60.29
2019-04-14T08:41:56.089Z,60.72
2019-04-14T08:44:27.148Z,60.41
2019-04-14T08:47:03.982Z,60.53
2019-04-14T08:49:59.302Z,60.23
2019-04-14T08:52:30.357Z,60.18
2019-04-14T08:55:19.577Z,59.97
2019-04-14T08:57:56.712Z,59.45
2019-04-14T09:00:30.423Z,59.52
2019-04-14T09:03:11.828Z,57.64
2019-04-14T09:05:45.754Z,56.97
2019-04-14T09:08:31.952Z,53.38
2019-04-14T09:11:05.935Z,48.00
2019-04-14T09:13:35.346Z,43.36
2019-04-14T09:16:04.788Z,40.34
2019-04-14T09:18:34.200Z,41.89
2019-04-14T09:21:03.614Z,42.43
2019-04-14T09:23:33.075Z,38.61
2019-04-14T09:26:02.520Z,36.21
2019-04-14T09:28:32.054Z,37.21
2019-04-14T09:31:01.489Z,39.88
2019-04-14T09:33:30.990Z,41.04
2019-04-14T09:36:00.428Z,41.66
2019-04-14T09:38:29.856Z,42.77
2019-04-14T09:40:59.270Z,43.70
2019-04-14T09:43:28.710Z,45.44
2019-04-14T09:45:58.133Z,46.38
2019-04-14T09:48:27.542Z,47.01
2019-04-14T09:51:04.726Z,47.95
2019-04-14T09:53:28.189Z,48.78
2019-04-14T09:55:57.672Z,49.33
2019-04-14T09:58:27.112Z,49.54
2019-04-14T10:00:56.511Z,49.87
2019-04-14T10:03:25.948Z,48.96
2019-04-14T10:05:58.030Z,47.56
2019-04-14T10:08:27.478Z,48.42
2019-04-14T10:10:56.946Z,48.00
2019-04-14T10:13:26.324Z,47.22
2019-04-14T10:15:55.808Z,47.57
2019-04-14T10:18:25.213Z,48.06
2019-04-14T10:20:54.703Z,49.48
2019-04-14T10:23:24.112Z,50.07
2019-04-14T10:25:53.526Z,51.26
2019-04-14T10:28:22.925Z,51.41
2019-04-14T10:30:52.350Z,50.52
2019-04-14T10:33:21.757Z,50.83
2019-04-14T10:35:51.203Z,50.42
2019-04-14T10:38:21.138Z,49.72
2019-04-14T10:40:50.562Z,50.52
2019-04-14T10:43:19.956Z,50.26
2019-04-14T10:45:49.405Z,49.35
2019-04-14T10:48:18.819Z,49.92
2019-04-14T10:50:48.263Z,49.36
2019-04-14T10:53:17.666Z,49.36
2019-04-14T10:55:47.102Z,49.40
2019-04-14T10:58:16.537Z,48.44
2019-04-14T11:00:46.024Z,47.04
2019-04-14T11:03:15.447Z,47.90
2019-04-14T11:06:01.564Z,45.78
2019-04-14T11:08:31.056Z,43.26
2019-04-14T11:11:00.534Z,42.86
2019-04-14T11:13:29.954Z,43.20
2019-04-14T11:15:59.453Z,43.22
2019-04-14T11:18:28.973Z,43.53
2019-04-14T11:20:58.396Z,43.25
2019-04-14T11:23:27.856Z,43.59
2019-04-14T11:25:57.246Z,43.95
2019-04-14T11:28:26.693Z,44.13
2019-04-14T11:30:56.164Z,44.94
2019-04-14T11:33:29.999Z,46.08
2019-04-14T11:36:01.051Z,46.02
2019-04-14T11:38:32.197Z,45.89
2019-04-14T11:41:03.247Z,46.91
2019-04-14T11:43:32.693Z,46.80
2019-04-14T11:46:03.863Z,47.79
2019-04-14T11:48:33.304Z,48.20
2019-04-14T11:51:02.804Z,48.27
2019-04-14T11:53:32.278Z,49.12
2019-04-14T11:56:01.867Z,48.16
2019-04-14T11:58:31.303Z,46.05
2019-04-14T12:01:18.664Z,45.40
2019-04-14T12:04:04.560Z,43.91
2019-04-14T12:06:51.867Z,42.40
2019-04-14T12:09:26.007Z,41.51
2019-04-14T12:11:55.381Z,39.57
2019-04-14T12:14:24.801Z,39.66
2019-04-14T12:16:54.247Z,39.88
2019-04-14T12:19:23.681Z,39.02
2019-04-14T12:21:53.089Z,39.02
2019-04-14T12:24:22.571Z,39.29
2019-04-14T12:26:52.039Z,40.71
2019-04-14T12:29:21.588Z,40.76
2019-04-14T12:31:51.420Z,40.72
2019-04-14T12:34:20.824Z,40.20
2019-04-14T12:36:50.258Z,40.90
2019-04-14T12:39:23.140Z,40.22
2019-04-14T12:41:54.957Z,38.80
2019-04-14T12:44:28.677Z,39.73
2019-04-14T12:47:11.815Z,39.90
2019-04-14T12:49:42.971Z,39.55
2019-04-14T12:52:22.128Z,39.68
2019-04-14T12:54:51.198Z,40.25
2019-04-14T12:57:25.024Z,41.03
2019-04-14T12:59:54.494Z,39.97
2019-04-14T13:02:28.409Z,39.78
2019-04-14T13:04:57.853Z,39.47
2019-04-14T13:07:27.282Z,39.04
2019-04-14T13:09:56.722Z,39.03
2019-04-14T13:12:26.237Z,39.80
2019-04-14T13:14:55.797Z,39.85
2019-04-14T13:17:25.225Z,41.36
2019-04-14T13:19:54.653Z,42.49
2019-04-14T13:22:33.832Z,42.47
2019-04-14T13:24:55.200Z,42.02
2019-04-14T13:27:24.595Z,40.95
2019-04-14T13:29:54.029Z,38.33
2019-04-14T13:32:35.394Z,37.80
2019-04-14T13:34:54.592Z,36.76
2019-04-14T13:37:24.018Z,36.90
2019-04-14T13:39:53.423Z,36.42
2019-04-14T13:42:22.864Z,36.44
2019-04-14T13:44:52.302Z,36.10
2019-04-14T13:47:21.798Z,36.18
2019-04-14T13:49:51.240Z,36.44
2019-04-14T13:52:20.651Z,37.71
2019-04-14T13:54:50.350Z,38.53
2019-04-14T13:57:19.785Z,38.46
2019-04-14T13:59:49.204Z,38.47
2019-04-14T14:02:18.640Z,38.58
2019-04-14T14:04:48.050Z,39.28
2019-04-14T14:07:17.465Z,39.16
2019-04-14T14:09:46.907Z,39.11
2019-04-14T14:12:23.451Z,39.49
2019-04-14T14:14:57.560Z,39.18
2019-04-14T14:17:31.409Z,38.60
2019-04-14T14:20:02.514Z,36.81
2019-04-14T14:22:59.143Z,36.96
2019-04-14T14:28:16.996Z,36.96
2019-04-14T14:30:46.539Z,36.98
2019-04-14T14:33:15.965Z,35.43
2019-04-14T14:35:45.396Z,33.23
2019-04-14T14:38:14.847Z,32.79
2019-04-14T14:40:44.271Z,32.98
2019-04-14T14:43:13.668Z,33.89
2019-04-14T14:46:00.805Z,35.09
2019-04-14T14:48:31.866Z,35.18
2019-04-14T14:51:11.521Z,36.51
2019-04-14T14:53:40.931Z,37.13
2019-04-14T14:56:10.389Z,37.26
2019-04-14T14:58:39.796Z,36.71
2019-04-14T15:01:09.397Z,36.28
2019-04-14T15:03:38.816Z,35.00
2019-04-14T15:06:08.409Z,34.40
2019-04-14T15:08:37.816Z,34.30
2019-04-14T15:11:07.293Z,35.54
2019-04-14T15:13:36.704Z,35.93
2019-04-14T15:16:06.209Z,36.63
2019-04-14T15:18:35.622Z,36.57
2019-04-14T15:21:05.127Z,35.20
2019-04-14T15:23:34.798Z,35.17
2019-04-14T15:26:04.536Z,34.95
2019-04-14T15:28:33.929Z,34.64
2019-04-14T15:31:03.500Z,33.93
2019-04-14T15:33:32.946Z,34.02
2019-04-14T15:36:02.382Z,33.26
2019-04-14T15:38:31.798Z,33.41
2019-04-14T15:41:01.300Z,33.44
2019-04-14T15:43:30.721Z,32.69
2019-04-14T15:46:00.154Z,31.95
2019-04-14T15:48:29.628Z,32.45
2019-04-14T15:50:59.182Z,32.55
2019-04-14T15:53:37.879Z,33.04
2019-04-14T15:56:00.648Z,34.21
2019-04-14T15:58:37.717Z,34.71
2019-04-14T16:01:11.647Z,35.15
2019-04-14T16:03:42.692Z,35.48
2019-04-14T16:06:16.690Z,33.74
2019-04-14T16:08:56.907Z,32.96
2019-04-14T16:11:44.210Z,31.64
2019-04-14T16:14:23.751Z,32.61
2019-04-14T16:16:57.671Z,31.50
2019-04-14T16:19:34.166Z,30.93
2019-04-14T16:22:03.685Z,31.01
2019-04-14T16:24:33.164Z,31.97
2019-04-14T16:27:19.374Z,31.50
2019-04-14T16:29:53.394Z,30.86
2019-04-14T16:32:27.211Z,31.40
2019-04-14T16:35:02.041Z,31.19
2019-04-14T16:37:31.457Z,31.57
2019-04-14T16:40:00.897Z,32.21
2019-04-14T16:42:30.399Z,32.02
2019-04-14T16:44:59.822Z,32.20
2019-04-14T16:47:29.243Z,32.75
2019-04-14T16:49:58.675Z,33.47
2019-04-14T16:52:29.737Z,34.23
2019-04-14T16:55:00.794Z,34.41
2019-04-14T16:57:47.765Z,34.58
2019-04-14T17:00:21.565Z,35.32
2019-04-14T17:02:50.320Z,34.93
2019-04-14T17:05:19.829Z,35.32
2019-04-14T17:07:49.286Z,35.98
2019-04-14T17:10:18.688Z,36.17
2019-04-14T17:12:48.114Z,36.04
2019-04-14T17:15:19.167Z,36.53
2019-04-14T17:18:08.093Z,36.91
2019-04-14T17:20:42.082Z,37.21
2019-04-14T17:23:13.148Z,37.44
2019-04-14T17:25:44.218Z,38.12
2019-04-14T17:28:15.278Z,38.57
2019-04-14T17:30:46.331Z,38.74
2019-04-14T17:33:17.407Z,38.79
2019-04-14T17:35:50.275Z,39.06
2019-04-14T17:38:33.701Z,38.89
2019-04-14T17:41:04.800Z,38.86
2019-04-14T17:43:41.317Z,38.73
2019-04-14T17:46:12.362Z,39.11
2019-04-14T17:48:58.733Z,39.31
2019-04-14T17:51:29.788Z,40.20
2019-04-14T17:54:03.795Z,40.05
2019-04-14T17:56:43.789Z,40.49
2019-04-14T17:59:20.941Z,40.88
2019-04-14T18:01:58.120Z,41.17
2019-04-14T18:04:35.183Z,41.18
2019-04-14T18:07:08.778Z,42.01
2019-04-14T18:09:42.503Z,41.30
2019-04-14T18:12:29.652Z,41.22
2019-04-14T18:15:00.715Z,41.47
2019-04-14T18:17:31.778Z,41.86
2019-04-14T18:20:02.820Z,41.90
2019-04-14T18:22:32.418Z,41.71
2019-04-14T18:25:01.843Z,42.51
2019-04-14T18:27:32.901Z,42.13
2019-04-14T18:30:10.032Z,43.22
2019-04-14T18:32:47.304Z,42.97
2019-04-14T18:35:29.959Z,43.87
2019-04-14T18:38:17.140Z,44.00
2019-04-14T18:40:53.777Z,45.26
2019-04-14T18:43:24.824Z,44.12
2019-04-14T18:45:58.462Z,44.71
2019-04-14T18:48:32.190Z,45.27
2019-04-14T18:51:03.290Z,45.52
2019-04-14T18:53:34.330Z,45.39
2019-04-14T18:56:26.459Z,44.68
2019-04-14T18:59:00.630Z,44.54
2019-04-14T19:01:46.963Z,45.04
2019-04-14T19:04:16.364Z,44.71
2019-04-14T19:06:45.792Z,44.77
2019-04-14T19:09:15.272Z,44.53
2019-04-14T19:12:02.616Z,44.16
2019-04-14T19:14:36.473Z,44.38
2019-04-14T19:17:07.564Z,44.65
2019-04-14T19:19:38.603Z,44.50
2019-04-14T19:22:08.033Z,45.28
2019-04-14T19:24:37.435Z,45.62
2019-04-14T19:27:06.864Z,45.69
2019-04-14T19:29:36.273Z,46.14
2019-04-14T19:32:05.696Z,46.09
2019-04-14T19:34:35.097Z,46.47
2019-04-14T19:37:04.593Z,46.62
2019-04-14T19:39:34.001Z,46.80
2019-04-14T19:42:03.421Z,47.19
2019-04-14T19:44:32.816Z,47.50
2019-04-14T19:47:02.239Z,47.63
2019-04-14T19:49:31.649Z,48.00
2019-04-14T19:52:01.078Z,48.48
2019-04-14T19:54:30.480Z,48.34
2019-04-14T19:56:59.903Z,48.60
2019-04-14T19:59:29.349Z,48.87
2019-04-14T20:01:58.769Z,48.75
2019-04-14T20:04:28.175Z,49.15
2019-04-14T20:06:57.597Z,49.46
2019-04-14T20:09:27.069Z,49.69
2019-04-14T20:11:56.556Z,49.96
2019-04-14T20:14:25.950Z,49.99
2019-04-14T20:17:06.326Z,50.26
2019-04-14T20:19:39.774Z,50.29
2019-04-14T20:22:16.522Z,50.58
2019-04-14T20:24:53.638Z,50.28
2019-04-14T20:27:27.638Z,50.79
2019-04-14T20:29:58.672Z,51.28
2019-04-14T20:32:32.471Z,51.25
2019-04-14T20:35:01.911Z,51.55
2019-04-14T20:37:31.318Z,52.06
2019-04-14T20:40:00.723Z,52.15
2019-04-14T20:42:30.162Z,52.40
2019-04-14T20:44:59.558Z,52.66
2019-04-14T20:47:28.960Z,52.95
2019-04-14T20:49:58.354Z,53.02
2019-04-14T20:52:27.840Z,53.42
2019-04-14T20:54:57.256Z,53.77
2019-04-14T20:57:26.686Z,54.23
2019-04-14T20:59:56.079Z,54.50
2019-04-14T21:02:30.111Z,54.93
2019-04-14T21:05:01.159Z,55.21
2019-04-14T21:07:48.279Z,55.33
2019-04-14T21:10:22.036Z,55.19
2019-04-14T21:12:53.654Z,55.73
2019-04-14T21:15:36.837Z,56.12
2019-04-14T21:18:13.895Z,56.30
2019-04-14T21:20:50.661Z,56.57
2019-04-14T21:23:33.819Z,57.00
2019-04-14T21:26:21.021Z,57.27
2019-04-14T21:29:01.405Z,57.32
2019-04-14T21:31:35.102Z,57.63
2019-04-14T21:34:12.211Z,57.72
2019-04-14T21:36:43.255Z,58.40
2019-04-14T21:39:14.309Z,58.42
2019-04-14T21:41:45.349Z,58.59
2019-04-14T21:44:14.767Z,58.82
2019-04-14T21:46:44.202Z,58.74
2019-04-14T21:49:13.639Z,58.90
2019-04-14T21:52:01.105Z,59.23
2019-04-14T21:54:30.537Z,59.02
2019-04-14T21:57:01.582Z,59.05
2019-04-14T21:59:35.325Z,58.91
2019-04-14T22:02:22.865Z,59.25
2019-04-14T22:04:56.779Z,59.27
2019-04-14T22:07:30.597Z,59.35
2019-04-14T22:10:01.791Z,59.40
2019-04-14T22:12:31.949Z,60.10
2019-04-14T22:15:01.363Z,59.85
2019-04-14T22:17:30.783Z,59.95
2019-04-14T22:20:00.268Z,59.78
2019-04-14T22:22:29.669Z,59.82
2019-04-14T22:24:59.088Z,60.13
2019-04-14T22:27:28.480Z,59.92
2019-04-14T22:29:57.892Z,60.36
2019-04-14T22:32:27.282Z,60.60
2019-04-14T22:34:56.695Z,60.32
2019-04-14T22:37:26.078Z,60.32
2019-04-14T22:39:55.521Z,61.01
2019-04-14T22:42:24.911Z,61.20
2019-04-14T22:44:54.345Z,61.05
2019-04-14T22:47:23.722Z,61.54
2019-04-14T22:49:53.132Z,61.03
2019-04-14T22:52:22.621Z,61.47
2019-04-14T22:54:52.143Z,61.61
2019-04-14T22:57:21.537Z,61.34
2019-04-14T22:59:50.956Z,61.84
2019-04-14T23:02:38.473Z,61.75
2019-04-14T23:05:22.476Z,62.15
2019-04-14T23:07:59.750Z,61.99
2019-04-14T23:10:33.751Z,61.92
2019-04-14T23:13:07.503Z,62.20
2019-04-14T23:15:38.629Z,62.11
2019-04-14T23:18:25.636Z,62.48
2019-04-14T23:21:11.780Z,62.66
2019-04-14T23:23:52.105Z,63.04
2019-04-14T23:26:21.650Z,63.09
2019-04-14T23:28:51.072Z,63.21
2019-04-14T23:31:20.479Z,63.51
2019-04-14T23:33:49.876Z,63.67
2019-04-14T23:36:19.297Z,63.87
2019-04-14T23:38:48.724Z,63.95
2019-04-14T23:41:18.108Z,64.30
2019-04-14T23:43:47.531Z,64.27
2019-04-14T23:46:16.935Z,64.56
2019-04-14T23:48:46.346Z,64.43
2019-04-14T23:51:15.736Z,64.78
2019-04-14T23:53:45.161Z,64.68
2019-04-14T23:56:14.569Z,64.87
2019-04-14T23:58:43.995Z,64.96
